Time;durP1;ratioP1;P1;durP2;ratioP2;P2;SDS_P1;SDS_P2;PMS_P1;PMS_P2;Temp;Humidity;BMP_temperature;BMP_pressure;BME280_temperature;BME280_humidity;BME280_pressure;Samples;Min_cycle;Max_cycle;Signal;HPM_P1;HPM_P2
2021/01/03 00:02:23;;;;;;;17.25;8.25;;;;;;;3.96;61.61;94040.09;5087114;28;20456;-72
2021/01/03 00:04:49;;;;;;;18.75;8.20;;;;;;;3.96;61.74;94034.03;5088604;28;20024;-72
2021/01/03 00:07:14;;;;;;;23.13;9.90;;;;;;;4.01;61.78;94036.69;5088480;28;20032;-73
2021/01/03 00:09:40;;;;;;;18.00;8.90;;;;;;;4.10;61.19;94042.97;5080241;28;20035;-73
2021/01/03 00:12:05;;;;;;;24.48;9.73;;;;;;;4.18;60.73;94046.91;5088318;28;20020;-72
2021/01/03 00:14:31;;;;;;;20.50;9.27;;;;;;;4.15;61.17;94045.63;5076728;28;20372;-71
2021/01/03 00:17:02;;;;;;;20.95;8.95;;;;;;;4.22;61.05;94048.75;5073366;28;20020;-72
2021/01/03 00:19:28;;;;;;;22.48;9.30;;;;;;;4.26;61.04;94041.09;5088494;28;20118;-73
2021/01/03 00:21:54;;;;;;;23.15;9.40;;;;;;;4.30;61.44;94038.72;5088268;28;20112;-67
2021/01/03 00:24:20;;;;;;;20.17;9.18;;;;;;;4.30;61.32;94046.63;5075525;28;20523;-68
2021/01/03 00:26:46;;;;;;;22.30;9.60;;;;;;;4.33;61.72;94040.81;5091527;28;20046;-66
2021/01/03 00:29:13;;;;;;;21.75;8.57;;;;;;;4.33;61.43;94046.06;5090997;28;20028;-67
2021/01/03 00:31:43;;;;;;;23.15;9.80;;;;;;;4.29;62.07;94037.13;5090346;28;20132;-67
2021/01/03 00:34:10;;;;;;;26.35;10.05;;;;;;;4.38;62.07;94032.88;5072176;28;20499;-66
2021/01/03 00:36:35;;;;;;;21.38;9.68;;;;;;;4.47;61.47;94025.97;5071987;28;20404;-67
2021/01/03 00:39:01;;;;;;;22.02;9.40;;;;;;;4.53;61.29;94024.09;5078977;28;20029;-67
2021/01/03 00:41:27;;;;;;;18.13;8.85;;;;;;;4.57;60.92;94030.41;5086229;28;20039;-67
2021/01/03 00:43:52;;;;;;;23.15;10.63;;;;;;;4.60;60.98;94025.41;5103175;28;20035;-67
2021/01/03 00:46:18;;;;;;;20.10;9.13;;;;;;;4.63;60.92;94030.13;5077731;28;20031;-67
2021/01/03 00:48:43;;;;;;;26.45;9.93;;;;;;;4.68;60.95;94025.88;5091566;28;20020;-67
2021/01/03 00:51:08;;;;;;;23.55;9.82;;;;;;;4.65;60.94;94026.44;5091771;28;20035;-67
2021/01/03 00:53:34;;;;;;;22.00;10.02;;;;;;;4.69;60.73;94022.19;5076712;28;20056;-67
2021/01/03 00:55:59;;;;;;;18.98;9.05;;;;;;;4.75;60.20;94016.59;5078531;28;20059;-67
2021/01/03 00:58:25;;;;;;;21.50;9.73;;;;;;;4.78;60.51;94015.25;5076263;28;20085;-68
2021/01/03 01:00:50;;;;;;;21.30;9.05;;;;;;;4.82;60.93;94008.38;5079142;28;20384;-68
2021/01/03 01:03:15;;;;;;;22.17;9.43;;;;;;;4.88;60.74;94014.44;5076026;28;20115;-68
2021/01/03 01:05:41;;;;;;;29.40;11.48;;;;;;;4.91;60.94;94006.75;5088070;28;20097;-68
2021/01/03 01:08:06;;;;;;;26.02;11.50;;;;;;;4.93;61.07;94007.25;5089107;28;20038;-67
2021/01/03 01:10:32;;;;;;;27.65;12.00;;;;;;;4.97;62.12;93996.94;5086092;28;20408;-67
2021/01/03 01:13:00;;;;;;;23.30;10.75;;;;;;;4.97;62.26;93997.72;5090412;28;20085;-68
2021/01/03 01:15:29;;;;;;;22.27;10.73;;;;;;;5.00;63.92;93985.81;5078706;28;20033;-68
2021/01/03 01:17:57;;;;;;;22.35;11.70;;;;;;;5.05;64.44;93987.63;5071120;28;20081;-70
2021/01/03 01:20:26;;;;;;;22.10;10.88;;;;;;;5.14;64.80;93973.56;5090275;28;20506;-69
2021/01/03 01:22:52;;;;;;;23.73;11.60;;;;;;;5.19;65.02;93976.19;5091318;28;20031;-69
2021/01/03 01:25:21;;;;;;;22.45;11.85;;;;;;;5.22;65.42;93970.34;5091375;28;20031;-70
2021/01/03 01:27:46;;;;;;;22.88;11.30;;;;;;;5.30;65.94;93968.19;5091429;28;20024;-69
2021/01/03 01:30:13;;;;;;;22.63;11.88;;;;;;;5.36;65.69;93965.19;5090388;28;20031;-69
2021/01/03 01:32:40;;;;;;;24.98;13.20;;;;;;;5.44;65.84;93969.13;5086792;28;20028;-70
2021/01/03 01:35:07;;;;;;;20.25;11.32;;;;;;;5.52;65.49;93960.59;5090007;28;20085;-69
2021/01/03 01:37:32;;;;;;;28.05;13.57;;;;;;;5.57;66.33;93959.75;5090709;28;20035;-70
2021/01/03 01:39:58;;;;;;;33.20;13.52;;;;;;;5.62;66.03;93959.69;5091462;28;20546;-69
2021/01/03 01:42:25;;;;;;;24.00;14.00;;;;;;;5.63;66.74;93951.47;5091968;28;20024;-70
2021/01/03 01:44:50;;;;;;;29.23;14.43;;;;;;;5.69;66.42;93939.00;5070815;28;20407;-70
2021/01/03 01:47:24;;;;;;;28.20;14.93;;;;;;;5.70;67.06;93940.59;5070369;28;20057;-70
2021/01/03 01:49:52;;;;;;;27.63;15.02;;;;;;;5.74;67.18;93946.88;5090882;28;20051;-70
2021/01/03 01:52:20;;;;;;;29.52;15.82;;;;;;;5.77;67.27;93941.03;5091116;28;20097;-70
2021/01/03 01:54:55;;;;;;;26.65;14.52;;;;;;;5.79;67.27;93940.75;5091370;28;20051;-70
2021/01/03 01:57:29;;;;;;;28.35;15.35;;;;;;;5.84;67.07;93935.41;5091692;28;20078;-70
2021/01/03 02:00:13;;;;;;;35.97;16.20;;;;;;;5.88;67.32;93932.97;5090258;28;20085;-70
2021/01/03 02:02:42;;;;;;;30.08;15.43;;;;;;;5.91;67.97;93930.56;5091652;28;20555;-70
2021/01/03 02:05:28;;;;;;;34.75;15.77;;;;;;;5.90;67.57;93926.34;5090338;28;20039;-70
2021/01/03 02:08:08;;;;;;;31.30;15.82;;;;;;;5.86;67.44;93924.53;5090094;28;20046;-70
2021/01/03 02:10:40;;;;;;;25.88;15.13;;;;;;;5.83;67.61;93913.44;5091626;28;20372;-70
2021/01/03 02:13:12;;;;;;;28.83;14.50;;;;;;;5.85;67.68;93923.75;5091363;28;20058;-70
2021/01/03 02:15:39;;;;;;;31.42;14.95;;;;;;;5.87;67.50;93912.91;5090035;28;20522;-70
2021/01/03 02:18:08;;;;;;;29.70;15.68;;;;;;;5.89;67.21;93918.69;5075011;28;20029;-70
2021/01/03 02:20:57;;;;;;;31.85;14.82;;;;;;;5.91;67.14;93905.97;5069729;28;20526;-70
2021/01/03 02:23:40;;;;;;;26.35;13.93;;;;;;;5.96;66.88;93898.81;5068199;28;20032;-70
2021/01/03 02:26:07;;;;;;;31.08;14.13;;;;;;;5.97;66.77;93910.16;5089664;28;20024;-70
2021/01/03 02:28:39;;;;;;;31.95;13.38;;;;;;;5.98;66.66;93907.25;5088867;28;20112;-70
2021/01/03 02:31:05;;;;;;;;;;;;;;;5.96;66.69;93900.66;5089998;28;20034;-72
2021/01/03 02:33:41;;;;;;;24.45;11.98;;;;;;;5.95;66.89;93912.31;5080112;28;19931;-70
2021/01/03 02:36:30;;;;;;;31.65;13.50;;;;;;;5.96;66.50;93916.50;5090951;28;20027;-71
2021/01/03 02:39:31;;;;;;;25.00;13.40;;;;;;;5.95;66.68;93913.09;5089464;28;20035;-71
2021/01/03 02:42:12;;;;;;;31.23;14.85;;;;;;;5.94;66.14;93918.63;5083198;28;20087;-71
2021/01/03 02:44:37;;;;;;;28.63;14.48;;;;;;;5.95;66.38;93912.31;5079318;28;20028;-70
2021/01/03 02:47:03;;;;;;;24.27;13.48;;;;;;;5.91;65.99;93925.28;5081050;28;20028;-71
2021/01/03 02:49:28;;;;;;;25.70;14.60;;;;;;;5.94;66.03;93918.63;5074998;28;20035;-70
2021/01/03 02:51:54;;;;;;;27.20;13.88;;;;;;;5.94;66.39;93924.72;5082062;28;20530;-70
2021/01/03 02:54:20;;;;;;;27.67;13.35;;;;;;;5.98;66.02;93925.78;5090588;28;20031;-71
2021/01/03 02:56:45;;;;;;;24.27;13.10;;;;;;;5.98;66.15;93914.38;5089731;28;20016;-70
2021/01/03 02:59:11;;;;;;;28.38;13.13;;;;;;;6.05;65.57;93920.13;5080245;28;20431;-70
2021/01/03 03:01:36;;;;;;;23.95;12.43;;;;;;;6.09;65.62;93915.06;5075628;28;20051;-70
2021/01/03 03:04:02;;;;;;;23.75;13.85;;;;;;;6.12;65.96;93925.06;5082082;28;20028;-70
2021/01/03 03:06:27;;;;;;;28.40;12.45;;;;;;;6.18;65.79;93935.31;5076987;28;20115;-70
2021/01/03 03:08:53;;;;;;;26.35;12.70;;;;;;;6.18;65.84;93934.53;5069302;28;20021;-70
2021/01/03 03:11:18;;;;;;;24.20;13.38;;;;;;;6.14;66.03;93923.72;5071882;28;20024;-70
2021/01/03 03:13:44;;;;;;;33.00;12.40;;;;;;;6.18;66.42;93927.38;5075351;28;20181;-70
2021/01/03 03:16:09;;;;;;;22.80;10.57;;;;;;;6.09;66.93;93917.72;5071480;28;20024;-70
2021/01/03 03:18:35;;;;;;;25.50;11.45;;;;;;;6.10;66.67;93925.34;5088761;28;20495;-70
2021/01/03 03:21:00;;;;;;;26.67;12.85;;;;;;;6.19;66.76;93922.88;5090399;28;20028;-70
2021/01/03 03:23:25;;;;;;;23.48;11.23;;;;;;;6.21;66.65;93918.09;5084749;28;20023;-70
2021/01/03 03:25:51;;;;;;;26.35;12.45;;;;;;;6.20;66.83;93909.34;5090030;28;20032;-70
2021/01/03 03:28:17;;;;;;;25.05;11.85;;;;;;;6.19;66.96;93915.72;5088746;28;20031;-70
2021/01/03 03:30:43;;;;;;;28.42;12.68;;;;;;;6.15;67.16;93913.94;5081560;28;20027;-70
2021/01/03 03:33:09;;;;;;;30.33;14.10;;;;;;;5.94;68.11;93914.16;5088989;28;20488;-70
2021/01/03 03:35:35;;;;;;;29.90;12.55;;;;;;;5.96;68.07;93916.50;5081457;28;20110;-70
2021/01/03 03:38:02;;;;;;;26.85;13.98;;;;;;;5.94;68.32;93916.78;5083184;28;20093;-70
2021/01/03 03:40:27;;;;;;;28.58;14.60;;;;;;;5.86;68.59;93919.25;5087105;28;20515;-70
2021/01/03 03:42:53;;;;;;;27.95;14.27;;;;;;;5.81;68.88;93920.09;5087590;28;20032;-70
2021/01/03 03:45:19;;;;;;;32.58;14.85;;;;;;;5.75;69.05;93908.78;5077753;28;20453;-70
2021/01/03 03:47:44;;;;;;;29.83;14.93;;;;;;;5.74;69.38;93909.06;5080456;28;20024;-70
2021/01/03 03:50:21;;;;;;;29.35;14.23;;;;;;;5.74;69.19;93912.50;5080339;28;20024;-70
2021/01/03 03:52:46;;;;;;;32.47;14.65;;;;;;;5.68;69.67;93918.91;5087689;28;20070;-69
2021/01/03 03:55:13;;;;;;;28.88;14.10;;;;;;;5.69;69.07;93907.25;5083636;28;20037;-70
2021/01/03 03:57:38;;;;;;;28.35;14.60;;;;;;;5.61;69.62;93910.50;5098941;28;20119;-70
2021/01/03 04:00:11;;;;;;;28.02;13.95;;;;;;;5.60;69.43;93911.59;5072813;28;20601;-70
2021/01/03 04:02:36;;;;;;;24.77;12.63;;;;;;;5.65;69.07;93914.19;5089543;28;20548;-70
2021/01/03 04:05:03;;;;;;;23.58;12.35;;;;;;;5.68;68.95;93908.34;5091570;28;20039;-70
2021/01/03 04:07:28;;;;;;;27.58;13.68;;;;;;;5.66;69.39;93902.53;5086098;28;20103;-70
2021/01/03 04:09:54;;;;;;;22.38;13.30;;;;;;;5.71;69.47;93917.56;5088859;28;20508;-70
2021/01/03 04:12:19;;;;;;;24.13;11.80;;;;;;;5.74;68.94;93895.84;5088792;28;20028;-70
2021/01/03 04:14:45;;;;;;;23.80;13.43;;;;;;;5.76;68.88;93902.44;5088973;28;20020;-70
2021/01/03 04:17:10;;;;;;;23.95;12.93;;;;;;;5.72;69.38;93909.34;5086457;28;20020;-70
2021/01/03 04:19:35;;;;;;;26.52;12.55;;;;;;;5.77;69.46;93914.56;5085232;28;20031;-69
2021/01/03 04:22:04;;;;;;;25.85;12.57;;;;;;;5.80;69.45;93907.94;5092674;28;20023;-68
2021/01/03 04:24:31;;;;;;;25.98;11.82;;;;;;;5.82;69.19;93901.31;5093272;28;20085;-68
2021/01/03 04:27:04;;;;;;;21.70;10.82;;;;;;;5.79;69.53;93916.94;5075791;28;20375;-68
2021/01/03 04:29:30;;;;;;;20.45;11.35;;;;;;;5.81;69.82;93902.38;5081094;28;20111;-68
2021/01/03 04:32:03;;;;;;;19.38;9.85;;;;;;;5.88;69.75;93914.47;5074972;28;20114;-68
2021/01/03 04:34:28;;;;;;;;;;;;;;;5.92;70.03;93915.47;5094102;28;20026;-69
2021/01/03 04:36:56;;;;;;;20.65;9.82;;;;;;;5.89;70.25;93919.47;5093852;28;20014;-69
2021/01/03 04:39:23;;;;;;;20.95;10.70;;;;;;;5.93;70.38;93923.13;5076954;28;20032;-69
2021/01/03 04:41:55;;;;;;;24.58;11.57;;;;;;;5.97;70.51;93928.69;5088825;28;20379;-69
2021/01/03 04:44:33;;;;;;;22.77;10.82;;;;;;;6.00;70.30;93920.19;5094805;28;20031;-69
2021/01/03 04:47:04;;;;;;;17.73;10.40;;;;;;;6.07;70.30;93922.50;5095939;28;20056;-69
2021/01/03 04:49:41;;;;;;;19.10;10.55;;;;;;;6.15;70.52;93924.53;5095079;28;20052;-68
2021/01/03 04:52:30;;;;;;;16.10;9.70;;;;;;;6.17;70.33;93933.75;5080810;28;20041;-68
2021/01/03 04:55:19;;;;;;;21.30;11.15;;;;;;;6.20;70.17;93927.09;5108635;28;20027;-68
2021/01/03 04:58:02;;;;;;;17.20;10.02;;;;;;;6.21;69.76;93929.47;5094782;28;20039;-68
2021/01/03 05:00:53;;;;;;;17.65;9.80;;;;;;;6.23;69.70;93924.66;5096204;28;20028;-68
2021/01/03 05:03:36;;;;;;;22.33;10.27;;;;;;;6.21;69.61;93929.47;5094617;28;20028;-69
2021/01/03 05:06:06;;;;;;;18.65;10.25;;;;;;;6.24;70.05;93928.09;5094709;28;20028;-68
2021/01/03 05:08:37;;;;;;;21.63;10.50;;;;;;;6.27;69.67;93921.44;5094722;28;20098;-68
2021/01/03 05:11:16;;;;;;;19.33;9.82;;;;;;;6.24;69.91;93928.09;5090047;28;20059;-69
2021/01/03 05:14:02;;;;;;;17.10;9.98;;;;;;;6.23;70.19;93924.66;5092733;28;20099;-69
2021/01/03 05:16:28;;;;;;;21.67;9.30;;;;;;;6.18;70.51;93930.00;5092967;28;20028;-68
2021/01/03 05:18:53;;;;;;;19.25;9.88;;;;;;;6.22;70.23;93930.25;5091389;28;20066;-68
2021/01/03 05:21:18;;;;;;;14.70;8.32;;;;;;;6.25;70.21;93931.53;5092569;28;20084;-68
2021/01/03 05:24:02;;;;;;;17.02;8.80;;;;;;;6.17;69.48;93932.97;5074055;28;20116;-68
2021/01/03 05:26:34;;;;;;;24.02;8.57;;;;;;;6.10;69.44;93921.91;5091805;28;20082;-68
2021/01/03 05:29:00;;;;;;;20.48;8.98;;;;;;;6.03;70.15;93928.34;5092055;28;20523;-68
2021/01/03 05:31:27;;;;;;;16.75;8.57;;;;;;;6.01;70.17;93927.84;5090488;28;20124;-68
2021/01/03 05:33:54;;;;;;;21.50;8.75;;;;;;;6.05;70.41;93930.72;5072821;28;20047;-67
2021/01/03 05:36:28;;;;;;;17.40;8.63;;;;;;;6.05;69.94;93929.94;5069949;28;20125;-69
2021/01/03 05:38:53;;;;;;;17.17;8.88;;;;;;;6.02;69.64;93926.78;5078507;28;20024;-68
2021/01/03 05:41:46;;;;;;;19.58;8.65;;;;;;;6.09;70.31;93925.66;5079274;28;20068;-67
2021/01/03 05:44:28;;;;;;;17.05;7.18;;;;;;;6.14;69.91;93922.94;5067869;28;20549;-68
2021/01/03 05:47:12;;;;;;;23.27;11.35;;;;;;;6.12;70.33;93931.16;5076963;28;20032;-68
2021/01/03 05:49:38;;;;;;;22.42;10.20;;;;;;;6.13;69.59;93931.94;5088897;28;20024;-69
2021/01/03 05:52:14;;;;;;;25.08;10.10;;;;;;;6.16;70.04;93937.44;5071959;28;20131;-68
2021/01/03 05:54:40;;;;;;;24.45;10.88;;;;;;;6.13;70.17;93938.03;5070362;28;20392;-68
2021/01/03 05:57:08;;;;;;;19.05;11.20;;;;;;;6.09;70.18;93941.53;5069471;28;20031;-68
2021/01/03 05:59:38;;;;;;;21.00;10.70;;;;;;;6.11;70.09;93934.09;5088478;28;20032;-68
2021/01/03 06:02:28;;;;;;;26.48;12.00;;;;;;;6.10;69.75;93938.56;5085370;28;20027;-69
2021/01/03 06:05:08;;;;;;;24.85;11.00;;;;;;;6.07;69.94;93933.88;5079910;28;20023;-69
2021/01/03 06:07:34;;;;;;;26.75;11.90;;;;;;;6.02;70.01;93934.72;5105533;28;20027;-69
2021/01/03 06:10:00;;;;;;;26.70;11.15;;;;;;;5.99;70.18;93940.56;5090885;28;20072;-69
2021/01/03 06:12:29;;;;;;;25.08;11.00;;;;;;;5.95;70.22;93942.19;5086568;28;20132;-70
2021/01/03 06:15:00;;;;;;;20.05;10.75;;;;;;;5.95;70.72;93944.06;5082196;28;20015;-70
2021/01/03 06:17:59;;;;;;;21.10;10.75;;;;;;;5.87;71.01;93945.44;5089527;28;20032;-69
2021/01/03 06:20:30;;;;;;;21.65;11.07;;;;;;;5.85;71.25;93941.50;5067709;28;20544;-69
2021/01/03 06:23:36;;;;;;;28.73;12.02;;;;;;;5.89;71.07;93939.88;5082110;28;20023;-67
2021/01/03 06:26:06;;;;;;;28.98;12.35;;;;;;;5.91;70.48;93943.00;5086926;28;20028;-67
2021/01/03 06:28:50;;;;;;;23.77;11.60;;;;;;;5.87;70.60;93955.22;5089069;28;20020;-67
2021/01/03 06:31:46;;;;;;;21.58;11.02;;;;;;;5.79;71.54;93956.63;5087778;28;20107;-68
2021/01/03 06:34:37;;;;;;;21.55;10.70;;;;;;;5.72;71.52;93964.91;5105693;28;20491;-67
2021/01/03 06:37:05;;;;;;;22.35;11.57;;;;;;;5.67;72.01;93972.84;5088528;28;20039;-67
2021/01/03 06:39:33;;;;;;;22.70;10.60;;;;;;;5.66;72.23;93967.84;5088932;28;20028;-68
2021/01/03 06:42:37;;;;;;;27.15;12.30;;;;;;;5.54;72.63;93952.38;5083487;28;20502;-67
2021/01/03 06:45:27;;;;;;;22.05;12.30;;;;;;;5.57;72.50;93979.03;5085796;28;20437;-67
2021/01/03 06:47:58;;;;;;;22.70;11.73;;;;;;;5.65;72.46;93968.94;5088052;28;20102;-67
2021/01/03 06:50:42;;;;;;;27.65;12.82;;;;;;;5.69;71.85;93964.66;5088834;28;20162;-67
2021/01/03 06:53:45;;;;;;;24.48;12.95;;;;;;;5.73;71.83;93977.03;5087110;28;20040;-67
2021/01/03 06:56:29;;;;;;;28.42;14.15;;;;;;;5.74;71.87;93964.59;5074106;28;20028;-68
2021/01/03 06:59:13;;;;;;;26.48;13.13;;;;;;;5.71;72.51;93979.16;5076685;28;20065;-69
2021/01/03 07:01:40;;;;;;;27.25;13.52;;;;;;;5.74;72.59;93978.63;5105105;28;20188;-70
2021/01/03 07:04:27;;;;;;;26.73;13.77;;;;;;;5.79;72.61;93973.28;5090131;28;20028;-69
2021/01/03 07:06:56;;;;;;;29.88;13.80;;;;;;;5.88;72.04;93975.31;5068353;28;20040;-70
2021/01/03 07:09:21;;;;;;;23.33;13.30;;;;;;;5.94;71.93;93982.13;5085979;28;20050;-70
2021/01/03 07:11:47;;;;;;;28.77;14.65;;;;;;;5.97;71.47;93968.38;5087918;28;20020;-69
2021/01/03 07:14:21;;;;;;;28.15;14.10;;;;;;;6.05;71.58;93973.06;5088233;28;20076;-68
2021/01/03 07:16:54;;;;;;;37.78;14.27;;;;;;;6.11;71.67;93971.94;5074960;28;20063;-67
2021/01/03 07:19:35;;;;;;;35.00;15.10;;;;;;;6.16;71.50;93968.44;5082726;28;20549;-67
2021/01/03 07:22:04;;;;;;;35.92;17.85;;;;;;;6.19;71.58;93966.00;5084809;28;20110;-67
2021/01/03 07:24:36;;;;;;;38.75;19.35;;;;;;;6.26;71.62;93956.94;5075233;28;20041;-68
2021/01/03 07:27:23;;;;;;;30.88;17.60;;;;;;;6.34;71.68;93949.16;5084941;28;20040;-67
2021/01/03 07:29:55;;;;;;;27.83;14.38;;;;;;;6.47;72.13;93946.88;5087952;28;20047;-67
2021/01/03 07:32:40;;;;;;;29.47;13.73;;;;;;;6.52;71.95;93941.53;5087861;28;20102;-67
2021/01/03 07:35:25;;;;;;;22.30;11.95;;;;;;;6.61;72.06;93943.25;5101274;28;20323;-67
2021/01/03 07:37:52;;;;;;;22.25;11.75;;;;;;;6.71;72.04;93944.97;5077111;28;20880;-67
2021/01/03 07:40:20;;;;;;;22.35;12.77;;;;;;;6.83;71.78;93945.31;5087682;28;20023;-67
2021/01/03 07:42:45;;;;;;;20.85;11.57;;;;;;;6.88;71.90;93941.81;5070716;28;20487;-67
2021/01/03 07:45:13;;;;;;;25.83;13.05;;;;;;;6.97;71.92;93942.72;5074923;28;20031;-67
2021/01/03 07:47:51;;;;;;;21.23;13.38;;;;;;;7.05;71.85;93940.53;5086461;28;20055;-67
2021/01/03 07:50:22;;;;;;;27.08;13.10;;;;;;;7.10;71.92;93943.09;5072723;28;20096;-67
2021/01/03 07:52:52;;;;;;;25.73;13.43;;;;;;;7.08;71.47;93946.00;5081700;28;20048;-67
2021/01/03 07:55:23;;;;;;;25.92;12.82;;;;;;;7.08;71.13;93947.88;5073113;28;20032;-67
2021/01/03 07:58:17;;;;;;;31.58;15.75;;;;;;;7.18;71.50;93947.72;5078590;28;20024;-67
2021/01/03 08:00:44;;;;;;;31.60;16.40;;;;;;;7.19;71.34;93952.75;5066605;28;20037;-67
2021/01/03 08:03:14;;;;;;;28.00;14.55;;;;;;;7.13;71.74;93947.81;5078496;28;20051;-68
2021/01/03 08:05:41;;;;;;;32.58;15.68;;;;;;;7.17;71.42;93959.41;5084440;28;20031;-68
2021/01/03 08:08:30;;;;;;;35.67;18.10;;;;;;;7.02;72.75;93957.75;5078279;28;20028;-69
2021/01/03 08:11:31;;;;;;;35.75;16.95;;;;;;;6.89;73.79;93969.88;5102629;28;20069;-68
2021/01/03 08:14:05;;;;;;;33.50;14.23;;;;;;;6.88;73.84;93986.06;5081623;28;20070;-68
2021/01/03 08:16:30;;;;;;;25.42;13.77;;;;;;;6.94;73.40;93984.91;5076126;28;20024;-68
2021/01/03 08:19:04;;;;;;;28.00;13.73;;;;;;;7.09;73.41;94005.13;5087199;28;20055;-68
2021/01/03 08:21:31;;;;;;;26.10;13.88;;;;;;;7.18;72.88;93987.50;5071257;28;20405;-72
2021/01/03 08:24:13;;;;;;;33.83;14.75;;;;;;;7.33;72.52;94002.41;5068784;28;20029;-72
2021/01/03 08:26:54;;;;;;;31.42;15.75;;;;;;;7.38;72.55;94002.31;5088184;28;20109;-73
2021/01/03 08:29:47;;;;;;;30.58;16.67;;;;;;;7.26;72.04;94010.69;5088498;28;20070;-73
2021/01/03 08:32:22;;;;;;;36.13;15.35;;;;;;;7.03;73.10;94013.13;5087278;28;20024;-73
2021/01/03 08:34:48;;;;;;;31.75;15.45;;;;;;;6.92;73.30;94022.31;5088323;28;20036;-75
2021/01/03 08:37:23;;;;;;;32.75;16.42;;;;;;;6.94;74.49;94030.78;5088481;28;20404;-75
2021/01/03 08:39:50;;;;;;;28.20;16.38;;;;;;;6.89;74.76;94009.63;5075064;28;20025;-75
2021/01/03 08:42:24;;;;;;;37.08;16.73;;;;;;;6.98;74.30;94023.81;5068042;28;20054;-75
2021/01/03 08:44:54;;;;;;;32.55;16.17;;;;;;;6.98;73.86;94018.53;5087047;28;20175;-74
2021/01/03 08:47:31;;;;;;;30.67;14.95;;;;;;;7.06;73.38;94021.59;5089036;28;20461;-74
2021/01/03 08:50:22;;;;;;;27.80;14.95;;;;;;;7.11;73.25;94029.50;5090832;28;20441;-75
2021/01/03 08:53:09;;;;;;;25.95;13.85;;;;;;;7.21;73.08;94034.66;5091391;28;20130;-75
2021/01/03 08:55:39;;;;;;;26.50;14.02;;;;;;;7.25;73.03;94035.66;5092359;28;20162;-74
2021/01/03 08:58:10;;;;;;;24.60;13.75;;;;;;;7.30;72.70;94038.22;5090471;28;20052;-73
2021/01/03 09:00:39;;;;;;;23.70;13.80;;;;;;;7.27;73.27;94036.16;5078666;28;20474;-75
2021/01/03 09:03:12;;;;;;;25.73;13.82;;;;;;;7.42;73.21;94051.81;5071646;28;20028;-75
2021/01/03 09:05:38;;;;;;;29.17;14.27;;;;;;;7.51;72.58;94037.91;5071238;28;20548;-74
2021/01/03 09:08:08;;;;;;;28.55;13.55;;;;;;;7.53;72.49;94041.06;5105954;28;20020;-75
2021/01/03 09:10:38;;;;;;;25.58;14.02;;;;;;;7.62;72.57;94034.81;5091345;28;20020;-73
2021/01/03 09:13:06;;;;;;;26.35;14.57;;;;;;;7.66;72.81;94044.84;5081609;28;20510;-73
2021/01/03 09:15:33;;;;;;;26.92;14.05;;;;;;;7.76;71.55;94050.78;5080216;28;20488;-73
2021/01/03 09:18:22;;;;;;;35.20;14.88;;;;;;;7.72;71.90;94041.81;5090070;28;20085;-74
2021/01/03 09:20:55;;;;;;;26.50;14.10;;;;;;;7.78;71.89;94038.00;5105298;28;20074;-73
2021/01/03 09:23:22;;;;;;;27.20;15.25;;;;;;;7.88;71.78;94041.59;5091222;28;20058;-73
2021/01/03 09:25:55;;;;;;;28.13;15.45;;;;;;;7.97;71.55;94037.16;5071036;28;20040;-73
2021/01/03 09:28:29;;;;;;;26.63;14.70;;;;;;;8.08;71.60;94030.63;5069459;28;20032;-71
2021/01/03 09:31:15;;;;;;;24.40;14.02;;;;;;;8.26;71.21;94025.50;5070964;28;20029;-70
2021/01/03 09:33:54;;;;;;;31.45;14.55;;;;;;;8.43;70.94;94015.13;5091117;28;20019;-71
2021/01/03 09:36:42;;;;;;;25.95;14.02;;;;;;;8.61;70.06;94027.53;5090662;28;20036;-71
2021/01/03 09:39:11;;;;;;;25.40;12.82;;;;;;;8.71;69.46;94031.06;5073398;28;20024;-71
2021/01/03 09:41:55;;;;;;;24.80;13.35;;;;;;;8.84;68.86;94012.44;5084111;28;20039;-71
2021/01/03 09:44:33;;;;;;;23.48;11.88;;;;;;;8.99;68.60;94016.63;5087038;28;20032;-72
2021/01/03 09:47:14;;;;;;;20.40;10.80;;;;;;;9.09;67.63;94025.50;5084021;28;20043;-71
2021/01/03 09:49:57;;;;;;;23.10;11.15;;;;;;;9.12;66.67;94011.59;5089304;28;20036;-71
2021/01/03 09:52:33;;;;;;;20.38;10.75;;;;;;;9.14;66.47;94026.19;5083799;28;20447;-71
2021/01/03 09:55:01;;;;;;;20.08;11.48;;;;;;;9.17;66.49;94022.13;5077228;28;20021;-71
2021/01/03 09:57:34;;;;;;;28.98;12.15;;;;;;;9.16;66.68;94021.34;5087005;28;20020;-70
2021/01/03 10:00:00;;;;;;;20.15;12.13;;;;;;;9.18;66.64;94019.16;5077784;28;20031;-71
2021/01/03 10:02:26;;;;;;;19.63;11.57;;;;;;;9.20;66.27;94005.59;5090849;28;20016;-70
2021/01/03 10:04:52;;;;;;;22.65;11.63;;;;;;;9.26;65.99;93990.28;5069628;28;20020;-71
2021/01/03 10:07:22;;;;;;;19.35;10.57;;;;;;;9.36;65.29;94014.78;5069871;28;20086;-71
2021/01/03 10:09:56;;;;;;;17.92;10.07;;;;;;;9.51;64.97;94010.19;5084379;28;20028;-70
2021/01/03 10:12:30;;;;;;;20.48;10.98;;;;;;;9.64;65.15;93998.69;5073012;28;20111;-71
2021/01/03 10:15:06;;;;;;;20.98;11.05;;;;;;;9.73;64.04;94004.06;5081257;28;20038;-71
2021/01/03 10:17:32;;;;;;;18.83;10.25;;;;;;;9.83;63.62;94009.13;5070681;28;20079;-71
2021/01/03 10:19:57;;;;;;;16.17;8.93;;;;;;;9.88;62.92;94001.03;5087847;28;20024;-70
2021/01/03 10:22:47;;;;;;;21.85;10.52;;;;;;;10.02;63.04;93992.97;5084085;28;20032;-71
2021/01/03 10:25:16;;;;;;;18.67;9.57;;;;;;;10.13;62.43;93988.94;5075525;28;20020;-70
2021/01/03 10:28:11;;;;;;;19.45;10.23;;;;;;;10.22;61.46;94000.44;5084203;28;20020;-71
2021/01/03 10:30:37;;;;;;;32.92;19.30;;;;;;;10.34;61.14;93997.22;5081729;28;20127;-70
2021/01/03 10:33:03;;;;;;;27.88;15.27;;;;;;;10.42;61.45;93985.00;5069746;28;20025;-70
2021/01/03 10:35:28;;;;;;;18.80;10.82;;;;;;;10.51;61.62;93987.72;5080782;28;20038;-72
2021/01/03 10:37:55;;;;;;;17.77;8.98;;;;;;;10.46;59.53;93993.97;5070550;28;20115;-71
2021/01/03 10:40:20;;;;;;;18.33;9.23;;;;;;;10.43;60.08;93997.25;5076711;28;20055;-71
2021/01/03 10:42:47;;;;;;;16.95;9.70;;;;;;;10.41;60.21;93988.78;5082296;28;20456;-71
2021/01/03 10:45:13;;;;;;;15.68;8.85;;;;;;;10.05;60.29;93989.69;5083540;28;20035;-71
2021/01/03 10:47:39;;;;;;;16.58;9.68;;;;;;;10.07;61.08;93987.50;5080825;28;20020;-71
2021/01/03 10:50:06;;;;;;;23.10;10.20;;;;;;;10.10;61.55;93981.56;5089605;28;20042;-71
2021/01/03 10:52:34;;;;;;;18.73;9.63;;;;;;;10.18;61.04;93986.16;5074355;28;20052;-71
2021/01/03 10:55:08;;;;;;;15.75;9.25;;;;;;;10.21;61.10;93966.88;5079835;28;20077;-71
2021/01/03 11:01:00;;;;;;;14.52;8.25;;;;;;;10.11;60.02;93953.84;5079048;28;20028;-73
2021/01/03 11:03:26;;;;;;;20.37;11.27;;;;;;;10.05;60.66;93960.38;5080075;28;20031;-71
2021/01/03 11:05:53;;;;;;;22.25;10.90;;;;;;;10.06;61.51;93953.22;5076321;28;20017;-70
2021/01/03 11:08:18;;;;;;;15.50;9.27;;;;;;;10.11;61.13;93959.16;5085040;28;20074;-71
2021/01/03 11:10:43;;;;;;;18.50;9.90;;;;;;;10.12;61.38;93960.75;5075366;28;20052;-71
2021/01/03 11:13:09;;;;;;;17.13;10.30;;;;;;;10.16;61.22;93959.03;5078698;28;20110;-71
2021/01/03 11:15:34;;;;;;;15.75;10.10;;;;;;;10.24;60.94;93965.50;5074048;28;20716;-71
2021/01/03 11:17:59;;;;;;;16.13;9.02;;;;;;;10.33;60.78;93962.88;5075827;28;20024;-71
2021/01/03 11:20:25;;;;;;;19.15;9.90;;;;;;;10.41;60.77;93959.47;5076301;28;20020;-71
2021/01/03 11:22:50;;;;;;;18.65;10.10;;;;;;;10.44;60.67;93962.31;5085508;28;20052;-70
2021/01/03 11:25:16;;;;;;;20.60;10.50;;;;;;;10.47;61.16;93954.78;5075544;28;20066;-71
2021/01/03 11:27:42;;;;;;;25.52;11.00;;;;;;;10.57;61.43;93947.28;5077677;28;20021;-72
2021/01/03 11:30:09;;;;;;;18.20;10.23;;;;;;;10.73;60.65;93952.97;5067207;28;20069;-71
2021/01/03 11:32:34;;;;;;;19.45;9.85;;;;;;;10.77;59.75;93943.25;5068587;28;20032;-71
2021/01/03 11:35:00;;;;;;;18.05;8.82;;;;;;;10.91;58.90;93943.13;5073544;28;20028;-71
2021/01/03 11:37:28;;;;;;;19.00;10.80;;;;;;;11.09;59.36;93957.22;5086042;28;20076;-71
2021/01/03 11:39:53;;;;;;;18.45;10.95;;;;;;;11.13;59.21;93952.06;5070352;28;20032;-71
2021/01/03 11:42:25;;;;;;;28.85;12.38;;;;;;;11.15;58.94;93949.84;5071299;28;20126;-71
2021/01/03 11:44:50;;;;;;;30.45;15.13;;;;;;;11.34;58.74;93936.22;5087582;28;20028;-71
2021/01/03 11:47:17;;;;;;;25.75;12.93;;;;;;;11.47;58.43;93939.81;5076175;28;20035;-71
2021/01/03 11:49:43;;;;;;;19.02;11.07;;;;;;;11.53;57.98;93941.97;5088416;28;20026;-71
2021/01/03 11:52:08;;;;;;;22.80;12.63;;;;;;;11.61;57.07;93938.50;5086950;28;20104;-71